createdAt,value
2022-08-25T00:00:09.349Z,4.71
2022-08-25T00:01:41.093Z,9.54
2022-08-25T00:03:12.593Z,6.12
2022-08-25T00:04:44.728Z,7.80
2022-08-25T00:06:25.321Z,5.97
2022-08-25T00:07:56.696Z,5.55
2022-08-25T00:09:28.113Z,5.87
2022-08-25T00:11:03.530Z,6.01
2022-08-25T00:12:35.219Z,6.85
2022-08-25T00:14:06.670Z,5.58
2022-08-25T00:15:38.226Z,5.37
2022-08-25T00:17:09.795Z,7.46
2022-08-25T00:18:41.326Z,6.39
2022-08-25T00:20:12.701Z,9.27
2022-08-25T00:21:44.107Z,8.34
2022-08-25T00:23:15.508Z,5.99
2022-08-25T00:24:47.065Z,6.26
2022-08-25T00:26:18.469Z,5.35
2022-08-25T00:27:49.863Z,5.04
2022-08-25T00:29:21.410Z,5.80
2022-08-25T00:30:52.923Z,6.10
2022-08-25T00:32:24.493Z,5.64
2022-08-25T00:33:55.867Z,7.59
2022-08-25T00:35:27.269Z,6.09
2022-08-25T00:36:58.745Z,4.70
2022-08-25T00:38:30.526Z,6.37
2022-08-25T00:40:01.999Z,6.38
2022-08-25T00:41:33.480Z,5.83
2022-08-25T00:43:04.967Z,6.73
2022-08-25T00:44:36.413Z,6.67
2022-08-25T00:46:07.893Z,6.18
2022-08-25T00:47:39.497Z,5.36
2022-08-25T00:49:20.966Z,4.67
2022-08-25T00:50:56.630Z,4.89
2022-08-25T00:52:28.105Z,6.78
2022-08-25T00:53:59.505Z,6.18
2022-08-25T00:55:32.225Z,7.54
2022-08-25T00:57:03.591Z,6.15
2022-08-25T00:58:35.018Z,5.76
2022-08-25T01:00:06.600Z,5.76
2022-08-25T01:01:38.050Z,6.09
2022-08-25T01:03:09.556Z,5.93
2022-08-25T01:04:48.654Z,8.54
2022-08-25T01:06:20.839Z,7.49
2022-08-25T01:07:52.393Z,7.53
2022-08-25T01:09:29.018Z,5.95
2022-08-25T01:11:00.577Z,5.91
2022-08-25T01:12:32.066Z,6.92
2022-08-25T01:14:03.452Z,6.65
2022-08-25T01:15:34.907Z,6.30
2022-08-25T01:17:09.467Z,6.72
2022-08-25T01:18:40.980Z,5.37
2022-08-25T01:20:12.485Z,5.24
2022-08-25T01:21:43.975Z,6.08
2022-08-25T01:23:15.370Z,6.61
2022-08-25T01:24:46.793Z,8.01
2022-08-25T01:26:18.189Z,6.32
2022-08-25T01:27:51.189Z,6.43
2022-08-25T01:29:22.701Z,4.61
2022-08-25T01:30:54.308Z,7.03
2022-08-25T01:32:27.578Z,6.64
2022-08-25T01:33:59.322Z,7.17
2022-08-25T01:35:30.806Z,11.40
2022-08-25T01:37:02.319Z,6.14
2022-08-25T01:38:33.867Z,5.37
2022-08-25T01:40:05.447Z,7.23
2022-08-25T01:41:37.102Z,6.43
2022-08-25T01:43:08.478Z,5.21
2022-08-25T01:44:39.913Z,5.62
2022-08-25T01:46:11.542Z,5.24
2022-08-25T01:47:43.172Z,5.77
2022-08-25T01:49:15.785Z,5.77
2022-08-25T01:50:47.288Z,6.54
2022-08-25T01:52:18.752Z,5.89
2022-08-25T01:53:52.074Z,5.47
2022-08-25T01:55:23.470Z,5.37
2022-08-25T01:56:55.132Z,7.33
2022-08-25T01:58:26.826Z,7.11
2022-08-25T01:59:58.255Z,6.42
2022-08-25T02:01:29.684Z,6.77
2022-08-25T02:03:01.531Z,5.98
2022-08-25T02:04:34.252Z,6.68
2022-08-25T02:06:05.979Z,5.69
2022-08-25T02:07:37.489Z,6.86
2022-08-25T02:09:09.594Z,6.92
2022-08-25T02:10:42.353Z,5.44
2022-08-25T02:12:13.871Z,7.02
2022-08-25T02:13:45.344Z,5.18
2022-08-25T02:15:16.746Z,5.56
2022-08-25T02:16:48.279Z,5.33
2022-08-25T02:18:19.814Z,7.28
2022-08-25T02:19:51.279Z,5.28
2022-08-25T02:21:22.700Z,7.57
2022-08-25T02:22:56.974Z,5.29
2022-08-25T02:24:29.067Z,6.07
2022-08-25T02:26:00.445Z,5.47
2022-08-25T02:27:31.825Z,5.81
2022-08-25T02:29:03.281Z,6.55
2022-08-25T02:30:34.743Z,5.75
2022-08-25T02:32:06.126Z,9.69
2022-08-25T02:33:37.549Z,9.16
2022-08-25T02:35:08.971Z,6.55
2022-08-25T02:36:40.370Z,8.58
2022-08-25T02:38:12.018Z,6.73
2022-08-25T02:39:44.498Z,6.85
2022-08-25T02:41:16.010Z,5.85
2022-08-25T02:42:47.416Z,8.10
2022-08-25T02:44:18.893Z,7.30
2022-08-25T02:45:50.511Z,5.60
2022-08-25T02:47:24.590Z,6.94
2022-08-25T02:48:58.548Z,7.19
2022-08-25T02:50:29.922Z,5.86
2022-08-25T02:52:01.408Z,5.91
2022-08-25T02:53:33.353Z,6.69
2022-08-25T02:55:04.763Z,7.23
2022-08-25T02:56:36.178Z,7.90
2022-08-25T02:58:07.574Z,4.86
2022-08-25T02:59:39.250Z,5.96
2022-08-25T03:01:10.908Z,5.96
2022-08-25T03:02:42.514Z,6.05
2022-08-25T03:04:13.936Z,6.53
2022-08-25T03:05:45.452Z,7.99
2022-08-25T03:07:16.884Z,8.31
2022-08-25T03:08:49.488Z,7.52
2022-08-25T03:10:21.038Z,5.80
2022-08-25T03:11:52.448Z,7.50
2022-08-25T03:13:23.917Z,6.03
2022-08-25T03:14:55.439Z,6.20
2022-08-25T03:16:27.930Z,5.79
2022-08-25T03:18:00.226Z,5.73
2022-08-25T03:19:32.780Z,4.85
2022-08-25T03:21:04.139Z,7.71
2022-08-25T03:22:35.636Z,5.66
2022-08-25T03:24:07.094Z,7.02
2022-08-25T03:25:38.607Z,6.08
2022-08-25T03:27:10.053Z,6.29
2022-08-25T03:28:48.457Z,6.97
2022-08-25T03:30:20.006Z,5.99
2022-08-25T03:31:51.428Z,6.48
2022-08-25T03:33:23.061Z,6.76
2022-08-25T03:34:54.581Z,5.05
2022-08-25T03:36:26.108Z,4.95
2022-08-25T03:37:57.759Z,6.09
2022-08-25T03:39:29.117Z,7.25
2022-08-25T03:41:05.778Z,7.11
2022-08-25T03:42:37.558Z,7.14
2022-08-25T03:44:09.268Z,7.74
2022-08-25T03:45:40.814Z,6.81
2022-08-25T03:47:12.360Z,7.13
2022-08-25T03:48:44.148Z,5.48
2022-08-25T03:50:15.511Z,8.57
2022-08-25T03:51:47.051Z,6.82
2022-08-25T03:53:18.579Z,5.35
2022-08-25T03:54:50.026Z,5.18
2022-08-25T03:56:21.699Z,5.78
2022-08-25T03:57:53.281Z,7.03
2022-08-25T03:59:24.941Z,5.71
2022-08-25T04:00:56.378Z,6.73
2022-08-25T04:02:28.084Z,8.23
2022-08-25T04:03:59.615Z,7.59
2022-08-25T04:05:31.087Z,8.11
2022-08-25T04:07:04.607Z,9.83
2022-08-25T04:08:39.353Z,9.01
2022-08-25T04:10:10.772Z,7.65
2022-08-25T04:11:42.736Z,6.31
2022-08-25T04:13:15.360Z,10.11
2022-08-25T04:14:46.982Z,7.40
2022-08-25T04:16:18.452Z,9.14
2022-08-25T04:17:50.541Z,6.29
2022-08-25T04:19:23.349Z,8.03
2022-08-25T04:20:54.866Z,10.06
2022-08-25T04:22:31.398Z,7.61
2022-08-25T04:24:05.293Z,7.13
2022-08-25T04:25:36.746Z,8.23
2022-08-25T04:27:31.274Z,7.30
2022-08-25T04:29:02.656Z,7.80
2022-08-25T04:30:34.513Z,8.22
2022-08-25T04:32:06.407Z,7.95
2022-08-25T04:33:38.122Z,11.34
2022-08-25T04:35:20.141Z,7.06
2022-08-25T04:36:56.671Z,7.63
2022-08-25T04:38:28.135Z,8.08
2022-08-25T04:39:59.690Z,9.39
2022-08-25T04:41:51.984Z,7.38
2022-08-25T04:43:33.571Z,7.39
2022-08-25T04:45:05.126Z,6.49
2022-08-25T04:46:36.804Z,6.42
2022-08-25T04:48:08.567Z,7.87
2022-08-25T04:49:45.612Z,7.47
2022-08-25T04:51:16.990Z,7.30
2022-08-25T04:52:48.363Z,9.05
2022-08-25T04:54:20.064Z,7.71
2022-08-25T04:56:03.813Z,8.42
2022-08-25T04:58:31.928Z,8.10
2022-08-25T05:00:14.771Z,8.28
2022-08-25T05:02:03.736Z,9.16
2022-08-25T05:03:45.301Z,8.38
2022-08-25T05:05:26.724Z,8.42
2022-08-25T05:07:03.232Z,7.13
2022-08-25T05:08:45.827Z,10.35
2022-08-25T05:10:36.577Z,9.43
2022-08-25T05:12:07.945Z,7.85
2022-08-25T05:13:51.522Z,10.72
2022-08-25T05:15:23.252Z,9.22
2022-08-25T05:16:54.723Z,6.98
2022-08-25T05:18:31.582Z,6.63
2022-08-25T05:20:03.139Z,10.00
2022-08-25T05:21:34.711Z,8.73
2022-08-25T05:23:21.242Z,9.66
2022-08-25T05:25:01.813Z,9.52
2022-08-25T05:26:33.695Z,9.99
2022-08-25T05:28:05.565Z,8.58
2022-08-25T05:29:37.166Z,7.44
2022-08-25T05:31:08.728Z,8.45
2022-08-25T05:32:40.525Z,9.37
2022-08-25T05:34:12.207Z,10.07
2022-08-25T05:35:43.789Z,8.84
2022-08-25T05:37:25.375Z,6.77
2022-08-25T05:38:57.183Z,7.69
2022-08-25T05:40:34.150Z,9.50
2022-08-25T05:42:07.758Z,10.15
2022-08-25T05:43:53.594Z,9.15
2022-08-25T05:45:25.626Z,8.21
2022-08-25T05:47:17.203Z,8.57
2022-08-25T05:49:03.694Z,9.37
2022-08-25T05:50:40.257Z,9.24
2022-08-25T05:52:22.290Z,9.58
2022-08-25T05:53:54.049Z,7.65
2022-08-25T05:55:35.729Z,9.12
2022-08-25T05:57:07.333Z,8.43
2022-08-25T05:58:38.782Z,8.36
2022-08-25T06:00:10.521Z,7.84
2022-08-25T06:01:49.597Z,8.51
2022-08-25T06:03:21.257Z,8.86
2022-08-25T06:05:02.795Z,8.27
2022-08-25T06:06:44.657Z,9.94
2022-08-25T06:08:16.179Z,8.21
2022-08-25T06:09:47.735Z,8.02
2022-08-25T06:11:25.940Z,9.65
2022-08-25T06:12:57.482Z,8.19
2022-08-25T06:14:30.614Z,7.51
2022-08-25T06:16:02.383Z,10.75
2022-08-25T06:17:48.500Z,9.41
2022-08-25T06:19:25.120Z,9.24
2022-08-25T06:21:02.018Z,9.73
2022-08-25T06:22:33.652Z,10.27
2022-08-25T06:24:14.822Z,10.24
2022-08-25T06:25:47.163Z,10.43
2022-08-25T06:27:23.659Z,8.86
2022-08-25T06:28:55.246Z,8.97
2022-08-25T06:30:28.949Z,10.95
2022-08-25T06:32:00.635Z,9.29
2022-08-25T06:33:37.215Z,11.21
2022-08-25T06:35:08.915Z,11.84
2022-08-25T06:36:40.659Z,10.85
2022-08-25T06:38:13.038Z,10.71
2022-08-25T06:39:44.744Z,10.83
2022-08-25T06:41:16.266Z,12.05
2022-08-25T06:42:47.978Z,10.29
2022-08-25T06:44:29.472Z,10.58
2022-08-25T06:46:06.052Z,11.56
2022-08-25T06:47:38.677Z,12.04
2022-08-25T06:49:20.125Z,10.27
2022-08-25T06:50:51.710Z,9.65
2022-08-25T06:52:29.454Z,12.43
2022-08-25T06:54:06.113Z,12.08
2022-08-25T06:55:37.775Z,11.75
2022-08-25T06:57:09.327Z,8.67
2022-08-25T06:58:51.020Z,9.91
2022-08-25T07:00:30.485Z,10.26
2022-08-25T07:02:08.103Z,10.78
2022-08-25T07:03:40.168Z,9.90
2022-08-25T07:05:17.129Z,9.45
2022-08-25T07:06:58.504Z,9.43
2022-08-25T07:08:45.498Z,11.65
2022-08-25T07:10:22.155Z,12.28
2022-08-25T07:11:53.728Z,11.24
2022-08-25T07:13:25.348Z,12.50
2022-08-25T07:15:17.207Z,11.20
2022-08-25T07:16:51.685Z,11.42
2022-08-25T07:18:23.197Z,12.54
2022-08-25T07:19:59.762Z,12.81
2022-08-25T07:21:33.388Z,9.48
2022-08-25T07:23:05.556Z,12.40
2022-08-25T07:24:37.199Z,12.91
2022-08-25T07:26:15.915Z,12.51
2022-08-25T07:27:58.209Z,10.14
2022-08-25T07:29:32.419Z,12.83
2022-08-25T07:31:04.846Z,8.35
2022-08-25T07:32:36.616Z,10.40
2022-08-25T07:34:08.148Z,8.63
2022-08-25T07:35:41.201Z,12.06
2022-08-25T07:37:32.210Z,9.63
2022-08-25T07:39:21.886Z,11.96
2022-08-25T07:40:53.694Z,9.16
2022-08-25T07:42:28.530Z,9.82
2022-08-25T07:44:00.303Z,10.49
2022-08-25T07:45:31.831Z,12.63
2022-08-25T07:47:03.471Z,10.06
2022-08-25T07:48:37.168Z,9.70
2022-08-25T07:50:13.756Z,8.96
2022-08-25T07:52:05.215Z,7.98
2022-08-25T07:53:37.773Z,11.40
2022-08-25T07:55:11.066Z,11.72
2022-08-25T07:56:44.022Z,11.80
2022-08-25T07:58:15.765Z,10.45
2022-08-25T07:59:52.457Z,8.17
2022-08-25T08:01:24.808Z,10.60
2022-08-25T08:02:56.478Z,10.35
2022-08-25T08:04:28.160Z,11.21
2022-08-25T08:06:25.937Z,9.74
2022-08-25T08:08:27.746Z,9.94
2022-08-25T08:10:27.982Z,9.22
2022-08-25T08:12:09.821Z,9.09
2022-08-25T08:13:41.625Z,10.55
2022-08-25T08:15:13.325Z,10.79
2022-08-25T08:16:44.791Z,12.52
2022-08-25T08:18:21.483Z,12.98
2022-08-25T08:20:04.626Z,10.73
2022-08-25T08:21:36.123Z,9.11
2022-08-25T08:23:07.765Z,10.15
2022-08-25T08:24:44.645Z,10.68
2022-08-25T08:26:55.359Z,9.70
2022-08-25T08:28:35.250Z,11.06
2022-08-25T08:30:06.815Z,10.32
2022-08-25T08:31:38.489Z,9.46
2022-08-25T08:33:12.012Z,7.76
2022-08-25T08:34:44.458Z,7.78
2022-08-25T08:36:26.187Z,7.33
2022-08-25T08:37:57.798Z,9.26
2022-08-25T08:39:34.341Z,9.44
2022-08-25T08:41:09.060Z,9.86
2022-08-25T08:42:57.708Z,10.16
2022-08-25T08:44:39.278Z,8.51
2022-08-25T08:46:21.005Z,9.41
2022-08-25T08:47:52.808Z,7.94
2022-08-25T08:49:34.568Z,8.89
2022-08-25T08:51:09.746Z,9.06
2022-08-25T08:52:41.718Z,8.89
2022-08-25T08:54:15.370Z,8.21
2022-08-25T08:55:52.486Z,7.93
2022-08-25T08:57:32.112Z,9.34
2022-08-25T08:59:06.249Z,10.62
2022-08-25T09:00:52.223Z,8.63
2022-08-25T09:02:38.635Z,7.77
2022-08-25T09:04:31.912Z,8.15
2022-08-25T09:06:24.897Z,8.86
2022-08-25T09:08:02.552Z,8.31
2022-08-25T09:09:35.743Z,8.56
2022-08-25T09:11:10.026Z,8.91
2022-08-25T09:12:48.127Z,8.75
2022-08-25T09:14:30.831Z,8.50
2022-08-25T09:16:02.408Z,11.61
2022-08-25T09:17:39.500Z,8.57
2022-08-25T09:19:26.107Z,8.89
2022-08-25T09:20:57.733Z,10.45
2022-08-25T09:22:34.847Z,8.42
2022-08-25T09:24:28.611Z,8.52
2022-08-25T09:26:05.242Z,7.29
2022-08-25T09:27:36.818Z,9.66
2022-08-25T09:29:16.775Z,7.98
2022-08-25T09:30:49.942Z,5.72
2022-08-25T09:32:26.733Z,7.34
2022-08-25T09:34:13.637Z,6.61
2022-08-25T09:36:08.961Z,7.71
2022-08-25T09:38:22.239Z,10.16
2022-08-25T09:40:03.799Z,10.78
2022-08-25T09:41:51.703Z,8.31
2022-08-25T09:43:42.617Z,8.86
2022-08-25T09:45:34.497Z,7.21
2022-08-25T09:47:17.080Z,7.49
2022-08-25T09:49:01.597Z,8.72
2022-08-25T09:50:48.891Z,6.46
2022-08-25T09:52:26.560Z,7.56
2022-08-25T09:53:59.310Z,9.30
2022-08-25T09:56:01.444Z,8.78
2022-08-25T09:57:41.250Z,7.67
2022-08-25T09:59:35.201Z,6.82
2022-08-25T10:01:17.493Z,8.47
2022-08-25T10:02:51.817Z,8.13
2022-08-25T10:04:26.347Z,7.92
2022-08-25T10:06:20.398Z,6.84
2022-08-25T10:08:02.858Z,7.01
2022-08-25T10:09:45.578Z,10.30
2022-08-25T10:11:39.254Z,8.30
2022-08-25T10:13:16.150Z,7.19
2022-08-25T10:15:15.070Z,7.12
2022-08-25T10:17:02.202Z,6.16
2022-08-25T10:18:46.142Z,8.55
2022-08-25T10:20:35.425Z,7.05
2022-08-25T10:24:26.790Z,7.76
2022-08-25T10:26:07.014Z,9.84
2022-08-25T10:27:38.834Z,6.93
2022-08-25T10:29:30.913Z,5.86
2022-08-25T10:31:04.338Z,7.94
2022-08-25T10:32:46.145Z,6.92
2022-08-25T10:34:44.430Z,6.67
2022-08-25T10:36:16.944Z,6.68
2022-08-25T10:38:07.036Z,7.18
2022-08-25T10:39:43.820Z,5.58
2022-08-25T10:41:40.779Z,5.73
2022-08-25T10:43:23.736Z,7.80
2022-08-25T10:45:01.702Z,8.09
2022-08-25T10:46:43.835Z,7.24
2022-08-25T10:48:39.752Z,7.95
2022-08-25T10:50:49.097Z,5.57
2022-08-25T10:52:20.893Z,6.54
2022-08-25T10:53:52.526Z,5.74
2022-08-25T10:55:34.389Z,8.67
2022-08-25T10:57:12.122Z,8.43
2022-08-25T10:58:45.101Z,5.61
2022-08-25T11:00:16.814Z,7.09
2022-08-25T11:02:02.486Z,6.77
2022-08-25T11:03:51.956Z,10.31
2022-08-25T11:05:25.075Z,6.96
2022-08-25T11:06:56.785Z,7.64
2022-08-25T11:08:28.724Z,7.17
2022-08-25T11:10:00.471Z,8.59
2022-08-25T11:11:57.339Z,8.91
2022-08-25T11:13:30.929Z,6.41
2022-08-25T11:15:03.138Z,5.71
2022-08-25T11:16:37.151Z,6.58
2022-08-25T11:18:14.667Z,7.96
2022-08-25T11:19:46.979Z,6.13
2022-08-25T11:21:18.711Z,7.66
2022-08-25T11:22:53.828Z,6.08
2022-08-25T11:24:25.513Z,11.25
2022-08-25T11:25:57.475Z,6.70
2022-08-25T11:27:31.372Z,7.52
2022-08-25T11:29:03.066Z,6.33
2022-08-25T11:30:44.719Z,7.06
2022-08-25T11:32:27.317Z,7.24
2022-08-25T11:33:59.153Z,4.70
2022-08-25T11:35:36.321Z,5.69
2022-08-25T11:37:11.274Z,6.82
2022-08-25T11:38:43.205Z,5.40
2022-08-25T11:40:24.970Z,7.16
2022-08-25T11:41:56.949Z,8.04
2022-08-25T11:43:28.526Z,6.51
2022-08-25T11:45:03.100Z,7.17
2022-08-25T11:46:35.786Z,6.94
2022-08-25T11:48:07.753Z,7.29
2022-08-25T11:49:39.563Z,5.74
2022-08-25T11:51:12.421Z,9.28
2022-08-25T11:52:54.314Z,10.52
2022-08-25T11:54:26.546Z,8.69
2022-08-25T11:56:03.691Z,7.37
2022-08-25T11:57:45.614Z,10.60
2022-08-25T11:59:17.681Z,7.44
2022-08-25T12:00:49.688Z,7.32
2022-08-25T12:02:21.846Z,7.07
2022-08-25T12:03:53.950Z,5.33
2022-08-25T12:05:25.825Z,6.98
2022-08-25T12:06:57.947Z,5.79
2022-08-25T12:08:30.159Z,6.85
2022-08-25T12:10:01.981Z,5.35
2022-08-25T12:11:38.936Z,6.58
2022-08-25T12:13:16.000Z,6.50
2022-08-25T12:14:53.828Z,5.85
2022-08-25T12:16:27.065Z,5.66
2022-08-25T12:17:58.932Z,6.32
2022-08-25T12:19:31.736Z,8.00
2022-08-25T12:21:03.389Z,8.48
2022-08-25T12:22:35.140Z,7.87
2022-08-25T12:24:06.893Z,5.60
2022-08-25T12:25:43.810Z,5.38
2022-08-25T12:27:15.761Z,5.71
2022-08-25T12:28:47.558Z,5.46
2022-08-25T12:30:21.018Z,6.56
2022-08-25T12:31:59.156Z,5.30
2022-08-25T12:33:36.375Z,6.21
2022-08-25T12:35:08.155Z,7.30
2022-08-25T12:36:45.550Z,6.13
2022-08-25T12:38:18.712Z,8.62
2022-08-25T12:39:50.763Z,6.91
2022-08-25T12:41:22.520Z,6.05
2022-08-25T12:42:56.062Z,5.07
2022-08-25T12:44:29.917Z,6.56
2022-08-25T12:46:17.204Z,6.66
2022-08-25T12:47:59.218Z,6.74
2022-08-25T12:49:31.469Z,6.54
2022-08-25T12:51:03.114Z,6.76
2022-08-25T12:52:34.982Z,6.44
2022-08-25T12:54:19.064Z,6.03
2022-08-25T12:55:54.140Z,5.72
2022-08-25T12:57:29.562Z,7.68
2022-08-25T12:59:02.081Z,5.93
2022-08-25T13:00:44.868Z,5.71
2022-08-25T13:02:18.510Z,6.09
2022-08-25T13:03:51.070Z,5.80
2022-08-25T13:05:22.844Z,6.74
2022-08-25T13:06:55.180Z,5.60
2022-08-25T13:08:27.089Z,6.08
2022-08-25T13:10:25.325Z,5.47
2022-08-25T13:11:57.504Z,5.26
2022-08-25T13:13:29.622Z,5.67
2022-08-25T13:15:03.090Z,7.31
2022-08-25T13:16:35.032Z,5.48
2022-08-25T13:18:07.132Z,5.39
2022-08-25T13:19:39.861Z,4.67
2022-08-25T13:21:11.674Z,5.26
2022-08-25T13:22:43.660Z,5.63
2022-08-25T13:24:15.423Z,5.61
2022-08-25T13:25:47.155Z,6.04
2022-08-25T13:27:22.714Z,4.91
2022-08-25T13:28:54.633Z,4.80
2022-08-25T13:30:26.586Z,5.92
2022-08-25T13:31:58.891Z,7.57
2022-08-25T13:33:32.668Z,6.68
2022-08-25T13:35:04.289Z,6.07
2022-08-25T13:36:37.180Z,5.00
2022-08-25T13:38:13.728Z,4.80
2022-08-25T13:39:56.381Z,5.68
2022-08-25T13:41:28.764Z,5.97
2022-08-25T13:43:02.794Z,4.96
2022-08-25T13:44:51.720Z,5.52
2022-08-25T13:46:50.243Z,5.64
2022-08-25T13:49:42.875Z,6.17
2022-08-25T13:52:37.435Z,6.18
2022-08-25T13:54:41.095Z,5.63
2022-08-25T13:58:06.777Z,5.61
2022-08-25T13:59:44.493Z,5.34
2022-08-25T14:01:46.337Z,4.67
2022-08-25T14:03:21.546Z,5.97
2022-08-25T14:05:01.638Z,7.44
2022-08-25T14:06:38.751Z,6.08
2022-08-25T14:08:23.498Z,7.42
2022-08-25T14:10:02.810Z,6.40
2022-08-25T14:11:36.939Z,6.07
2022-08-25T14:13:10.995Z,5.40
2022-08-25T14:14:42.709Z,7.22
2022-08-25T14:16:14.880Z,5.69
2022-08-25T14:17:49.233Z,8.12
2022-08-25T14:19:20.949Z,5.37
2022-08-25T14:20:52.605Z,6.84
2022-08-25T14:22:29.792Z,7.41
2022-08-25T14:24:01.623Z,7.89
2022-08-25T14:25:33.352Z,6.22
2022-08-25T14:27:07.054Z,6.11
2022-08-25T14:28:58.700Z,9.25
2022-08-25T14:30:30.357Z,6.86
2022-08-25T14:32:02.193Z,6.27
2022-08-25T14:33:44.638Z,6.59
2022-08-25T14:35:21.975Z,7.24
2022-08-25T14:36:53.941Z,6.45
2022-08-25T14:38:25.938Z,8.40
2022-08-25T14:39:57.677Z,7.72
2022-08-25T14:41:29.338Z,5.74
2022-08-25T14:43:00.951Z,7.54
2022-08-25T14:44:33.844Z,6.29
2022-08-25T14:46:06.906Z,7.12
2022-08-25T14:47:39.039Z,6.22
2022-08-25T14:49:10.766Z,5.87
2022-08-25T14:50:42.652Z,7.61
2022-08-25T14:52:14.948Z,6.28
2022-08-25T14:53:50.612Z,5.48
2022-08-25T14:55:31.392Z,8.05
2022-08-25T14:57:03.716Z,7.56
2022-08-25T14:58:48.440Z,7.82
2022-08-25T15:00:25.936Z,5.77
2022-08-25T15:01:57.903Z,5.61
2022-08-25T15:03:40.041Z,5.75
2022-08-25T15:05:11.701Z,7.24
2022-08-25T15:06:43.801Z,9.23
2022-08-25T15:08:15.428Z,9.05
2022-08-25T15:09:47.190Z,6.86
2022-08-25T15:11:19.094Z,6.82
2022-08-25T15:12:53.834Z,6.12
2022-08-25T15:14:28.602Z,6.19
2022-08-25T15:16:04.773Z,8.87
2022-08-25T15:17:36.623Z,7.30
2022-08-25T15:19:09.008Z,6.78
2022-08-25T15:20:40.771Z,6.93
2022-08-25T15:22:12.467Z,7.03
2022-08-25T15:23:44.643Z,7.52
2022-08-25T15:25:16.396Z,6.66
2022-08-25T15:28:22.338Z,6.68
2022-08-25T15:29:54.307Z,6.72
2022-08-25T15:31:26.432Z,6.53
2022-08-25T15:32:58.677Z,6.60
2022-08-25T15:34:30.691Z,6.88
2022-08-25T15:36:02.376Z,5.69
2022-08-25T15:37:34.905Z,7.48
2022-08-25T15:39:06.569Z,5.98
2022-08-25T15:40:38.390Z,6.57
2022-08-25T15:42:10.341Z,6.50
2022-08-25T15:43:43.385Z,6.23
2022-08-25T15:45:16.053Z,5.35
2022-08-25T15:46:50.273Z,7.20
2022-08-25T15:48:22.179Z,6.59
2022-08-25T15:49:53.848Z,6.10
2022-08-25T15:51:26.397Z,6.85
2022-08-25T15:53:03.100Z,5.91
2022-08-25T15:54:35.308Z,5.96
2022-08-25T15:56:07.978Z,7.03
2022-08-25T15:58:38.511Z,7.32
2022-08-25T16:00:21.690Z,5.59
2022-08-25T16:01:53.978Z,7.24
2022-08-25T16:03:25.787Z,6.83
2022-08-25T16:04:58.020Z,7.47
2022-08-25T16:06:29.653Z,7.07
2022-08-25T16:08:01.302Z,6.03
2022-08-25T16:09:34.404Z,5.42
2022-08-25T16:11:06.547Z,6.90
2022-08-25T16:12:39.006Z,5.38
2022-08-25T16:14:10.864Z,6.00
2022-08-25T16:15:47.603Z,8.48
2022-08-25T16:17:25.850Z,7.08
2022-08-25T16:18:57.479Z,6.58
2022-08-25T16:20:34.252Z,6.66
2022-08-25T16:22:06.729Z,6.58
2022-08-25T16:23:40.733Z,6.58
2022-08-25T16:25:14.893Z,6.68
2022-08-25T16:26:49.148Z,8.35
2022-08-25T16:28:30.733Z,7.97
2022-08-25T16:30:02.342Z,8.71
2022-08-25T16:31:36.992Z,7.41
2022-08-25T16:33:08.753Z,6.33
2022-08-25T16:34:46.506Z,6.90
2022-08-25T16:36:19.220Z,7.44
2022-08-25T16:37:50.897Z,6.68
2022-08-25T16:39:23.980Z,5.77
2022-08-25T16:40:55.806Z,7.67
2022-08-25T16:42:27.737Z,6.84
2022-08-25T16:44:00.343Z,7.56
2022-08-25T16:45:53.504Z,7.72
2022-08-25T16:47:27.074Z,7.25
2022-08-25T16:48:58.829Z,5.96
2022-08-25T16:50:36.067Z,6.57
2022-08-25T16:52:09.289Z,7.08
2022-08-25T16:53:47.319Z,6.59
2022-08-25T16:55:21.507Z,6.18
2022-08-25T16:56:55.056Z,7.89
2022-08-25T16:58:33.348Z,7.06
2022-08-25T17:00:05.009Z,5.57
2022-08-25T17:01:37.385Z,6.89
2022-08-25T17:03:09.188Z,5.44
2022-08-25T17:04:40.918Z,10.29
2022-08-25T17:06:14.064Z,6.74
2022-08-25T17:07:56.987Z,6.53
2022-08-25T17:09:28.832Z,6.84
2022-08-25T17:11:05.885Z,9.05
2022-08-25T17:12:43.609Z,8.40
2022-08-25T17:14:15.326Z,9.52
2022-08-25T17:15:52.340Z,9.03
2022-08-25T17:17:24.627Z,9.01
2022-08-25T17:18:58.692Z,7.89
2022-08-25T17:20:35.501Z,8.15
2022-08-25T17:22:07.994Z,8.99
2022-08-25T17:23:40.808Z,8.59
2022-08-25T17:27:04.458Z,7.32
2022-08-25T17:28:37.133Z,12.08
2022-08-25T17:30:09.777Z,11.80
2022-08-25T17:31:41.378Z,10.77
2022-08-25T17:33:13.063Z,10.30
2022-08-25T17:34:44.783Z,7.54
2022-08-25T17:36:17.347Z,6.71
2022-08-25T17:37:50.536Z,7.58
2022-08-25T17:39:27.920Z,7.52
2022-08-25T17:41:00.084Z,7.94
2022-08-25T17:42:31.628Z,8.08
2022-08-25T17:44:03.221Z,7.93
2022-08-25T17:45:34.997Z,6.47
2022-08-25T17:47:06.542Z,7.46
2022-08-25T17:48:39.364Z,6.99
2022-08-25T17:50:15.535Z,7.45
2022-08-25T17:51:53.494Z,6.95
2022-08-25T17:53:25.095Z,7.80
2022-08-25T17:54:58.961Z,8.54
2022-08-25T17:56:30.798Z,8.60
2022-08-25T17:58:02.293Z,7.43
2022-08-25T17:59:33.927Z,8.61
2022-08-25T18:01:18.696Z,8.28
2022-08-25T18:02:50.445Z,8.00
2022-08-25T18:04:21.966Z,8.41
2022-08-25T18:05:53.497Z,8.30
2022-08-25T18:07:25.118Z,8.72
2022-08-25T18:09:00.049Z,9.39
2022-08-25T18:10:38.123Z,9.71
2022-08-25T18:12:09.690Z,7.43
2022-08-25T18:13:43.671Z,7.53
2022-08-25T18:15:26.714Z,9.32
2022-08-25T18:17:00.626Z,12.40
2022-08-25T18:18:32.391Z,9.72
2022-08-25T18:20:27.584Z,9.18
2022-08-25T18:21:59.235Z,8.02
2022-08-25T18:23:30.862Z,9.79
2022-08-25T18:25:07.417Z,8.73
2022-08-25T18:26:55.721Z,9.28
2022-08-25T18:28:27.234Z,9.40
2022-08-25T18:30:00.134Z,9.86
2022-08-25T18:31:31.695Z,9.46
2022-08-25T18:33:03.907Z,7.89
2022-08-25T18:34:36.527Z,9.71
2022-08-25T18:36:09.164Z,9.85
2022-08-25T18:37:40.734Z,10.47
2022-08-25T18:39:13.670Z,10.18
2022-08-25T18:40:45.367Z,9.98
2022-08-25T18:42:16.964Z,9.68
2022-08-25T18:43:49.644Z,11.05
2022-08-25T18:45:22.259Z,10.08
2022-08-25T18:46:54.164Z,9.70
2022-08-25T18:48:26.709Z,10.83
2022-08-25T18:50:02.580Z,9.63
2022-08-25T18:51:35.885Z,12.22
2022-08-25T18:53:12.458Z,10.56
2022-08-25T18:54:57.232Z,11.11
2022-08-25T18:56:29.070Z,10.32
2022-08-25T18:58:00.966Z,9.93
2022-08-25T18:59:32.625Z,9.34
2022-08-25T19:01:04.187Z,10.55
2022-08-25T19:02:36.461Z,11.37
2022-08-25T19:04:08.355Z,12.41
2022-08-25T19:05:49.407Z,11.04
2022-08-25T19:07:29.061Z,12.13
2022-08-25T19:09:01.041Z,12.04
2022-08-25T19:10:32.638Z,11.78
2022-08-25T19:12:04.224Z,10.13
2022-08-25T19:13:41.326Z,10.33
2022-08-25T19:15:12.934Z,11.88
2022-08-25T19:16:44.622Z,13.35
2022-08-25T19:18:16.256Z,11.38
2022-08-25T19:19:49.012Z,12.71
2022-08-25T19:21:22.532Z,13.29
2022-08-25T19:22:59.707Z,11.57
2022-08-25T19:24:36.261Z,11.87
2022-08-25T19:26:08.117Z,11.66
2022-08-25T19:27:46.251Z,13.90
2022-08-25T19:29:17.873Z,12.95
2022-08-25T19:30:50.951Z,12.72
2022-08-25T19:32:24.106Z,12.11
2022-08-25T19:33:56.077Z,12.53
2022-08-25T19:35:31.753Z,11.32
2022-08-25T19:37:04.450Z,12.03
2022-08-25T19:38:36.134Z,10.77
2022-08-25T19:40:07.837Z,12.26
2022-08-25T19:41:40.541Z,12.60
2022-08-25T19:43:12.571Z,12.39
2022-08-25T19:44:44.977Z,9.75
2022-08-25T19:46:17.348Z,11.13
2022-08-25T19:47:51.485Z,10.00
2022-08-25T19:49:25.383Z,11.77
2022-08-25T19:50:57.088Z,10.55
2022-08-25T19:52:28.926Z,11.64
2022-08-25T19:54:06.663Z,13.12
2022-08-25T19:55:48.515Z,13.04
2022-08-25T19:57:28.467Z,11.76
2022-08-25T19:59:14.304Z,10.29
2022-08-25T20:00:49.440Z,11.59
2022-08-25T20:02:22.821Z,9.89
2022-08-25T20:03:54.444Z,11.85
2022-08-25T20:05:28.748Z,11.75
2022-08-25T20:07:00.750Z,10.87
2022-08-25T20:08:32.457Z,11.07
2022-08-25T20:10:04.072Z,10.75
2022-08-25T20:11:35.994Z,11.75
2022-08-25T20:13:08.029Z,10.16
2022-08-25T20:14:39.775Z,13.82
2022-08-25T20:16:11.375Z,11.60
2022-08-25T20:17:42.977Z,8.29
2022-08-25T20:19:16.684Z,11.18
2022-08-25T20:20:48.331Z,11.57
2022-08-25T20:22:24.954Z,13.97
2022-08-25T20:23:58.385Z,9.86
2022-08-25T20:25:35.999Z,12.37
2022-08-25T20:27:08.675Z,13.36
2022-08-25T20:28:42.216Z,10.49
2022-08-25T20:30:14.084Z,11.29
2022-08-25T20:31:48.149Z,12.11
2022-08-25T20:33:23.120Z,10.87
2022-08-25T20:34:55.821Z,13.23
2022-08-25T20:36:27.626Z,13.12
2022-08-25T20:38:04.907Z,12.11
2022-08-25T20:39:36.752Z,9.86
2022-08-25T20:41:08.555Z,12.28
2022-08-25T20:42:40.658Z,10.50
2022-08-25T20:44:42.905Z,10.26
2022-08-25T20:46:18.400Z,8.69
2022-08-25T20:48:01.211Z,9.69
2022-08-25T20:49:43.734Z,11.05
2022-08-25T20:51:34.293Z,11.90
2022-08-25T20:53:13.713Z,7.98
2022-08-25T20:54:46.983Z,9.36
2022-08-25T20:56:21.220Z,12.16
2022-08-25T21:00:11.118Z,12.78
2022-08-25T21:01:42.887Z,11.70
2022-08-25T21:03:15.068Z,11.48
2022-08-25T21:04:49.951Z,13.55
2022-08-25T21:06:28.248Z,10.37
2022-08-25T21:08:00.250Z,10.05
2022-08-25T21:10:06.202Z,11.65
2022-08-25T21:12:23.973Z,11.00
2022-08-25T21:13:55.421Z,12.05